Terminal Aerodrome Forecast
Issued by NWS

Home | Current Version | Previous Version | Text Only | Print | Product List | Glossary On
Versions: 1 2 3 4 5 6 7 8 9 10 11 12 13 14
000
FTUS45 KRIW 230500
TAFCPR
TAF
KCPR 230520Z 2306/2406 21020G30KT P6SM SCT100
     FM230800 23024G34KT P6SM VCSH SCT060 BKN080
     FM231200 24018G28KT P6SM SCT080 BKN110
     FM231700 27018G30KT P6SM SCT070 BKN110
     FM240100 27013KT P6SM FEW070 SCT110=

USA.gov is the U.S. government's official web portal to all federal, state and local government web resources and services.